sensor_id;sensor_type;location;lat;lon;timestamp;P1;durP1;ratioP1;P2;durP2;ratioP2
23181;SDS011;11759;51.282;6.642;2023-05-29T00:00:25;561.50;;;138.93;;
23181;SDS011;11759;51.282;6.642;2023-05-29T00:02:52;580.05;;;156.50;;
23181;SDS011;11759;51.282;6.642;2023-05-29T00:05:19;599.03;;;169.02;;
23181;SDS011;11759;51.282;6.642;2023-05-29T00:07:46;560.33;;;139.85;;
23181;SDS011;11759;51.282;6.642;2023-05-29T00:10:13;602.60;;;173.88;;
23181;SDS011;11759;51.282;6.642;2023-05-29T00:12:40;556.95;;;140.68;;
23181;SDS011;11759;51.282;6.642;2023-05-29T00:15:06;646.60;;;205.80;;
23181;SDS011;11759;51.282;6.642;2023-05-29T00:17:34;556.97;;;137.13;;
23181;SDS011;11759;51.282;6.642;2023-05-29T00:20:02;560.63;;;137.60;;
23181;SDS011;11759;51.282;6.642;2023-05-29T00:22:38;612.08;;;177.15;;
23181;SDS011;11759;51.282;6.642;2023-05-29T00:25:06;587.80;;;163.85;;
23181;SDS011;11759;51.282;6.642;2023-05-29T00:27:33;600.05;;;168.75;;
23181;SDS011;11759;51.282;6.642;2023-05-29T00:30:02;553.72;;;136.15;;
23181;SDS011;11759;51.282;6.642;2023-05-29T00:32:30;563.65;;;140.15;;
23181;SDS011;11759;51.282;6.642;2023-05-29T00:34:57;560.10;;;136.77;;
23181;SDS011;11759;51.282;6.642;2023-05-29T00:37:24;562.28;;;136.45;;
23181;SDS011;11759;51.282;6.642;2023-05-29T00:39:52;565.17;;;137.40;;
23181;SDS011;11759;51.282;6.642;2023-05-29T00:42:19;554.15;;;131.32;;
23181;SDS011;11759;51.282;6.642;2023-05-29T00:44:46;567.25;;;142.65;;
23181;SDS011;11759;51.282;6.642;2023-05-29T00:47:13;553.67;;;133.88;;
23181;SDS011;11759;51.282;6.642;2023-05-29T00:49:40;588.92;;;158.75;;
23181;SDS011;11759;51.282;6.642;2023-05-29T00:52:07;555.22;;;131.60;;
23181;SDS011;11759;51.282;6.642;2023-05-29T00:54:34;602.20;;;169.85;;
23181;SDS011;11759;51.282;6.642;2023-05-29T00:57:01;553.40;;;132.98;;
23181;SDS011;11759;51.282;6.642;2023-05-29T00:59:30;587.90;;;156.18;;
23181;SDS011;11759;51.282;6.642;2023-05-29T01:02:02;632.78;;;197.27;;
23181;SDS011;11759;51.282;6.642;2023-05-29T01:04:29;622.03;;;171.70;;
23181;SDS011;11759;51.282;6.642;2023-05-29T01:07:00;562.00;;;135.57;;
23181;SDS011;11759;51.282;6.642;2023-05-29T01:09:29;605.53;;;164.63;;
23181;SDS011;11759;51.282;6.642;2023-05-29T01:17:11;629.65;;;186.30;;
23181;SDS011;11759;51.282;6.642;2023-05-29T01:19:58;552.78;;;130.48;;
23181;SDS011;11759;51.282;6.642;2023-05-29T01:22:40;547.67;;;125.78;;
23181;SDS011;11759;51.282;6.642;2023-05-29T01:25:31;550.13;;;129.95;;
23181;SDS011;11759;51.282;6.642;2023-05-29T01:28:01;589.60;;;153.18;;
23181;SDS011;11759;51.282;6.642;2023-05-29T01:30:31;543.58;;;126.22;;
23181;SDS011;11759;51.282;6.642;2023-05-29T01:32:59;554.40;;;130.50;;
23181;SDS011;11759;51.282;6.642;2023-05-29T01:35:26;539.60;;;123.07;;
23181;SDS011;11759;51.282;6.642;2023-05-29T01:37:53;545.95;;;127.25;;
23181;SDS011;11759;51.282;6.642;2023-05-29T01:40:21;555.63;;;129.95;;
23181;SDS011;11759;51.282;6.642;2023-05-29T01:42:51;546.22;;;122.75;;
23181;SDS011;11759;51.282;6.642;2023-05-29T01:45:19;591.58;;;156.00;;
23181;SDS011;11759;51.282;6.642;2023-05-29T01:47:46;545.70;;;123.85;;
23181;SDS011;11759;51.282;6.642;2023-05-29T01:50:17;595.80;;;159.23;;
23181;SDS011;11759;51.282;6.642;2023-05-29T01:52:44;547.45;;;125.68;;
23181;SDS011;11759;51.282;6.642;2023-05-29T01:55:12;603.38;;;169.27;;
23181;SDS011;11759;51.282;6.642;2023-05-29T01:57:40;553.70;;;124.00;;
23181;SDS011;11759;51.282;6.642;2023-05-29T02:00:07;628.35;;;185.82;;
23181;SDS011;11759;51.282;6.642;2023-05-29T02:02:41;531.92;;;118.30;;
23181;SDS011;11759;51.282;6.642;2023-05-29T02:05:08;599.60;;;159.65;;
23181;SDS011;11759;51.282;6.642;2023-05-29T02:07:35;557.53;;;124.10;;
23181;SDS011;11759;51.282;6.642;2023-05-29T02:10:05;591.08;;;149.68;;
23181;SDS011;11759;51.282;6.642;2023-05-29T02:12:32;550.60;;;119.28;;
23181;SDS011;11759;51.282;6.642;2023-05-29T02:14:59;557.83;;;130.95;;
23181;SDS011;11759;51.282;6.642;2023-05-29T02:17:27;541.45;;;118.85;;
23181;SDS011;11759;51.282;6.642;2023-05-29T02:19:53;549.15;;;121.47;;
23181;SDS011;11759;51.282;6.642;2023-05-29T02:22:20;565.00;;;129.63;;
23181;SDS011;11759;51.282;6.642;2023-05-29T02:24:48;544.50;;;122.18;;
23181;SDS011;11759;51.282;6.642;2023-05-29T02:27:14;561.50;;;128.07;;
23181;SDS011;11759;51.282;6.642;2023-05-29T02:29:41;546.45;;;121.20;;
23181;SDS011;11759;51.282;6.642;2023-05-29T02:32:08;572.80;;;140.00;;
23181;SDS011;11759;51.282;6.642;2023-05-29T02:35:33;567.85;;;135.77;;
23181;SDS011;11759;51.282;6.642;2023-05-29T02:38:00;576.67;;;140.45;;
23181;SDS011;11759;51.282;6.642;2023-05-29T02:40:27;548.78;;;129.23;;
23181;SDS011;11759;51.282;6.642;2023-05-29T02:42:53;572.50;;;137.02;;
23181;SDS011;11759;51.282;6.642;2023-05-29T02:45:20;542.60;;;118.35;;
23181;SDS011;11759;51.282;6.642;2023-05-29T02:47:47;562.75;;;128.98;;
23181;SDS011;11759;51.282;6.642;2023-05-29T02:50:14;575.13;;;145.90;;
23181;SDS011;11759;51.282;6.642;2023-05-29T02:52:41;608.75;;;161.43;;
23181;SDS011;11759;51.282;6.642;2023-05-29T02:55:08;575.13;;;144.40;;
23181;SDS011;11759;51.282;6.642;2023-05-29T02:57:35;580.78;;;142.68;;
23181;SDS011;11759;51.282;6.642;2023-05-29T03:00:03;545.20;;;119.18;;
23181;SDS011;11759;51.282;6.642;2023-05-29T03:02:34;546.55;;;120.85;;
23181;SDS011;11759;51.282;6.642;2023-05-29T03:05:02;538.90;;;115.30;;
23181;SDS011;11759;51.282;6.642;2023-05-29T03:07:29;542.40;;;120.85;;
23181;SDS011;11759;51.282;6.642;2023-05-29T03:09:56;549.60;;;120.63;;
23181;SDS011;11759;51.282;6.642;2023-05-29T03:12:25;530.00;;;113.45;;
23181;SDS011;11759;51.282;6.642;2023-05-29T03:14:55;549.38;;;119.07;;
23181;SDS011;11759;51.282;6.642;2023-05-29T03:17:24;531.15;;;114.53;;
23181;SDS011;11759;51.282;6.642;2023-05-29T03:19:52;582.08;;;142.23;;
23181;SDS011;11759;51.282;6.642;2023-05-29T03:22:19;534.53;;;114.93;;
23181;SDS011;11759;51.282;6.642;2023-05-29T03:24:46;601.00;;;150.82;;
23181;SDS011;11759;51.282;6.642;2023-05-29T03:27:13;536.92;;;113.53;;
23181;SDS011;11759;51.282;6.642;2023-05-29T03:29:41;563.38;;;128.00;;
23181;SDS011;11759;51.282;6.642;2023-05-29T03:32:08;534.85;;;115.72;;
23181;SDS011;11759;51.282;6.642;2023-05-29T03:34:35;596.88;;;161.15;;
23181;SDS011;11759;51.282;6.642;2023-05-29T03:37:04;529.95;;;110.85;;
23181;SDS011;11759;51.282;6.642;2023-05-29T03:39:31;548.17;;;116.72;;
23181;SDS011;11759;51.282;6.642;2023-05-29T03:41:58;540.83;;;113.88;;
23181;SDS011;11759;51.282;6.642;2023-05-29T03:44:26;537.30;;;115.22;;
23181;SDS011;11759;51.282;6.642;2023-05-29T03:46:53;566.85;;;127.40;;
23181;SDS011;11759;51.282;6.642;2023-05-29T03:49:20;533.90;;;109.38;;
23181;SDS011;11759;51.282;6.642;2023-05-29T03:51:47;553.80;;;121.82;;
23181;SDS011;11759;51.282;6.642;2023-05-29T03:54:14;536.00;;;112.53;;
23181;SDS011;11759;51.282;6.642;2023-05-29T03:56:43;558.20;;;124.63;;
23181;SDS011;11759;51.282;6.642;2023-05-29T03:59:12;539.13;;;113.80;;
23181;SDS011;11759;51.282;6.642;2023-05-29T04:01:38;582.35;;;142.57;;
23181;SDS011;11759;51.282;6.642;2023-05-29T04:04:05;541.95;;;114.43;;
23181;SDS011;11759;51.282;6.642;2023-05-29T04:06:32;542.50;;;110.97;;
23181;SDS011;11759;51.282;6.642;2023-05-29T04:08:59;538.47;;;114.55;;
23181;SDS011;11759;51.282;6.642;2023-05-29T04:11:28;534.78;;;117.15;;
23181;SDS011;11759;51.282;6.642;2023-05-29T04:13:54;542.38;;;117.00;;
23181;SDS011;11759;51.282;6.642;2023-05-29T04:16:21;526.85;;;108.65;;
23181;SDS011;11759;51.282;6.642;2023-05-29T04:18:48;545.03;;;113.97;;
23181;SDS011;11759;51.282;6.642;2023-05-29T04:21:15;568.80;;;129.95;;
23181;SDS011;11759;51.282;6.642;2023-05-29T04:23:41;532.03;;;112.72;;
23181;SDS011;11759;51.282;6.642;2023-05-29T04:26:09;555.75;;;121.72;;
23181;SDS011;11759;51.282;6.642;2023-05-29T04:28:37;531.65;;;110.72;;
23181;SDS011;11759;51.282;6.642;2023-05-29T04:31:05;533.78;;;108.05;;
23181;SDS011;11759;51.282;6.642;2023-05-29T04:33:33;543.10;;;113.65;;
23181;SDS011;11759;51.282;6.642;2023-05-29T04:36:04;529.10;;;110.60;;
23181;SDS011;11759;51.282;6.642;2023-05-29T04:38:32;540.45;;;113.75;;
23181;SDS011;11759;51.282;6.642;2023-05-29T04:40:59;535.63;;;110.55;;
23181;SDS011;11759;51.282;6.642;2023-05-29T04:43:27;534.10;;;110.00;;
23181;SDS011;11759;51.282;6.642;2023-05-29T04:46:02;536.22;;;112.38;;
23181;SDS011;11759;51.282;6.642;2023-05-29T04:48:32;423.25;;;100.13;;
23181;SDS011;11759;51.282;6.642;2023-05-29T04:50:59;534.53;;;112.85;;
23181;SDS011;11759;51.282;6.642;2023-05-29T04:53:27;535.75;;;112.00;;
23181;SDS011;11759;51.282;6.642;2023-05-29T04:55:54;542.08;;;114.78;;
23181;SDS011;11759;51.282;6.642;2023-05-29T04:58:21;541.67;;;112.93;;
23181;SDS011;11759;51.282;6.642;2023-05-29T05:00:49;587.97;;;143.73;;
23181;SDS011;11759;51.282;6.642;2023-05-29T05:03:16;530.83;;;111.32;;
23181;SDS011;11759;51.282;6.642;2023-05-29T05:05:44;556.05;;;124.63;;
23181;SDS011;11759;51.282;6.642;2023-05-29T05:08:14;533.88;;;112.22;;
23181;SDS011;11759;51.282;6.642;2023-05-29T05:10:42;557.95;;;125.75;;
23181;SDS011;11759;51.282;6.642;2023-05-29T05:13:09;539.72;;;114.22;;
23181;SDS011;11759;51.282;6.642;2023-05-29T05:15:38;581.17;;;142.85;;
23181;SDS011;11759;51.282;6.642;2023-05-29T05:18:04;551.03;;;117.63;;
23181;SDS011;11759;51.282;6.642;2023-05-29T05:20:33;548.83;;;120.63;;
23181;SDS011;11759;51.282;6.642;2023-05-29T05:22:59;547.60;;;116.78;;
23181;SDS011;11759;51.282;6.642;2023-05-29T05:25:27;527.55;;;112.00;;
23181;SDS011;11759;51.282;6.642;2023-05-29T05:27:53;558.45;;;124.65;;
23181;SDS011;11759;51.282;6.642;2023-05-29T05:30:21;537.70;;;113.13;;
23181;SDS011;11759;51.282;6.642;2023-05-29T05:32:48;563.08;;;127.22;;
23181;SDS011;11759;51.282;6.642;2023-05-29T05:35:15;575.17;;;143.25;;
23181;SDS011;11759;51.282;6.642;2023-05-29T05:37:43;568.75;;;130.50;;
23181;SDS011;11759;51.282;6.642;2023-05-29T05:40:11;571.05;;;141.38;;
23181;SDS011;11759;51.282;6.642;2023-05-29T05:42:48;563.58;;;130.80;;
23181;SDS011;11759;51.282;6.642;2023-05-29T05:45:17;579.50;;;142.70;;
23181;SDS011;11759;51.282;6.642;2023-05-29T05:47:43;601.67;;;156.35;;
23181;SDS011;11759;51.282;6.642;2023-05-29T05:50:11;574.83;;;144.25;;
23181;SDS011;11759;51.282;6.642;2023-05-29T05:52:38;560.97;;;125.40;;
23181;SDS011;11759;51.282;6.642;2023-05-29T05:55:05;562.75;;;134.43;;
23181;SDS011;11759;51.282;6.642;2023-05-29T05:57:32;546.42;;;119.07;;
23181;SDS011;11759;51.282;6.642;2023-05-29T06:00:00;546.10;;;118.85;;
23181;SDS011;11759;51.282;6.642;2023-05-29T06:02:28;539.58;;;114.30;;
23181;SDS011;11759;51.282;6.642;2023-05-29T06:04:55;562.03;;;125.57;;
23181;SDS011;11759;51.282;6.642;2023-05-29T06:07:22;542.05;;;115.15;;
23181;SDS011;11759;51.282;6.642;2023-05-29T06:09:49;619.78;;;172.27;;
23181;SDS011;11759;51.282;6.642;2023-05-29T06:12:16;551.08;;;125.68;;
23181;SDS011;11759;51.282;6.642;2023-05-29T06:14:53;555.70;;;128.32;;
23181;SDS011;11759;51.282;6.642;2023-05-29T06:17:20;540.63;;;119.90;;
23181;SDS011;11759;51.282;6.642;2023-05-29T06:19:49;598.28;;;155.93;;
23181;SDS011;11759;51.282;6.642;2023-05-29T06:22:15;545.90;;;119.47;;
23181;SDS011;11759;51.282;6.642;2023-05-29T06:24:43;627.42;;;180.32;;
23181;SDS011;11759;51.282;6.642;2023-05-29T06:27:10;545.35;;;119.65;;
23181;SDS011;11759;51.282;6.642;2023-05-29T06:29:37;569.75;;;131.70;;
23181;SDS011;11759;51.282;6.642;2023-05-29T06:32:05;567.83;;;132.98;;
23181;SDS011;11759;51.282;6.642;2023-05-29T06:34:32;548.55;;;120.28;;
23181;SDS011;11759;51.282;6.642;2023-05-29T06:36:59;585.90;;;144.48;;
23181;SDS011;11759;51.282;6.642;2023-05-29T06:39:25;551.95;;;123.28;;
23181;SDS011;11759;51.282;6.642;2023-05-29T06:41:53;558.03;;;128.23;;
23181;SDS011;11759;51.282;6.642;2023-05-29T06:44:19;547.95;;;120.95;;
23181;SDS011;11759;51.282;6.642;2023-05-29T06:46:47;563.65;;;131.93;;
23181;SDS011;11759;51.282;6.642;2023-05-29T06:49:15;575.88;;;138.95;;
23181;SDS011;11759;51.282;6.642;2023-05-29T06:51:43;550.13;;;124.70;;
23181;SDS011;11759;51.282;6.642;2023-05-29T06:54:37;554.13;;;124.63;;
23181;SDS011;11759;51.282;6.642;2023-05-29T06:57:04;582.72;;;141.80;;
23181;SDS011;11759;51.282;6.642;2023-05-29T06:59:37;556.53;;;128.70;;
23181;SDS011;11759;51.282;6.642;2023-05-29T07:02:06;570.80;;;140.75;;
23181;SDS011;11759;51.282;6.642;2023-05-29T07:04:33;549.20;;;126.18;;
23181;SDS011;11759;51.282;6.642;2023-05-29T07:07:00;606.42;;;162.68;;
23181;SDS011;11759;51.282;6.642;2023-05-29T07:09:27;555.58;;;130.55;;
23181;SDS011;11759;51.282;6.642;2023-05-29T07:11:54;615.50;;;177.48;;
23181;SDS011;11759;51.282;6.642;2023-05-29T07:14:22;560.72;;;128.98;;
23181;SDS011;11759;51.282;6.642;2023-05-29T07:16:49;568.03;;;135.65;;
23181;SDS011;11759;51.282;6.642;2023-05-29T07:19:16;562.97;;;136.88;;
23181;SDS011;11759;51.282;6.642;2023-05-29T07:21:49;568.45;;;133.93;;
23181;SDS011;11759;51.282;6.642;2023-05-29T07:24:20;563.55;;;137.85;;
23181;SDS011;11759;51.282;6.642;2023-05-29T07:26:47;574.03;;;143.48;;
23181;SDS011;11759;51.282;6.642;2023-05-29T07:29:14;565.85;;;137.45;;
23181;SDS011;11759;51.282;6.642;2023-05-29T07:31:43;569.72;;;141.05;;
23181;SDS011;11759;51.282;6.642;2023-05-29T07:34:11;570.97;;;140.60;;
23181;SDS011;11759;51.282;6.642;2023-05-29T07:36:44;564.85;;;137.70;;
23181;SDS011;11759;51.282;6.642;2023-05-29T07:39:23;559.03;;;135.85;;
23181;SDS011;11759;51.282;6.642;2023-05-29T07:41:50;584.88;;;151.57;;
23181;SDS011;11759;51.282;6.642;2023-05-29T07:44:17;566.90;;;137.95;;
23181;SDS011;11759;51.282;6.642;2023-05-29T07:46:44;573.95;;;143.98;;
23181;SDS011;11759;51.282;6.642;2023-05-29T07:49:30;572.13;;;137.38;;
23181;SDS011;11759;51.282;6.642;2023-05-29T07:51:57;625.55;;;190.98;;
23181;SDS011;11759;51.282;6.642;2023-05-29T07:54:24;564.08;;;143.43;;
23181;SDS011;11759;51.282;6.642;2023-05-29T07:56:51;590.40;;;162.05;;
23181;SDS011;11759;51.282;6.642;2023-05-29T07:59:18;570.47;;;148.05;;
23181;SDS011;11759;51.282;6.642;2023-05-29T08:01:45;582.40;;;159.05;;
23181;SDS011;11759;51.282;6.642;2023-05-29T08:04:31;575.10;;;143.05;;
23181;SDS011;11759;51.282;6.642;2023-05-29T08:06:59;589.45;;;160.77;;
23181;SDS011;11759;51.282;6.642;2023-05-29T08:09:27;572.67;;;154.02;;
23181;SDS011;11759;51.282;6.642;2023-05-29T08:11:55;597.15;;;174.60;;
23181;SDS011;11759;51.282;6.642;2023-05-29T08:14:23;573.58;;;153.77;;
23181;SDS011;11759;51.282;6.642;2023-05-29T08:16:50;598.75;;;173.93;;
23181;SDS011;11759;51.282;6.642;2023-05-29T08:19:17;575.08;;;154.98;;
23181;SDS011;11759;51.282;6.642;2023-05-29T08:21:44;577.70;;;164.75;;
23181;SDS011;11759;51.282;6.642;2023-05-29T08:24:11;618.08;;;200.30;;
23181;SDS011;11759;51.282;6.642;2023-05-29T08:26:38;577.33;;;163.65;;
23181;SDS011;11759;51.282;6.642;2023-05-29T08:29:05;601.90;;;192.13;;
23181;SDS011;11759;51.282;6.642;2023-05-29T08:31:32;582.58;;;171.13;;
23181;SDS011;11759;51.282;6.642;2023-05-29T08:33:59;580.92;;;174.90;;
23181;SDS011;11759;51.282;6.642;2023-05-29T08:36:26;603.80;;;193.45;;
23181;SDS011;11759;51.282;6.642;2023-05-29T08:38:53;615.35;;;200.75;;
23181;SDS011;11759;51.282;6.642;2023-05-29T08:44:13;661.95;;;245.82;;
23181;SDS011;11759;51.282;6.642;2023-05-29T08:46:41;582.78;;;180.38;;
23181;SDS011;11759;51.282;6.642;2023-05-29T08:49:08;587.65;;;174.35;;
23181;SDS011;11759;51.282;6.642;2023-05-29T08:51:37;588.13;;;174.18;;
23181;SDS011;11759;51.282;6.642;2023-05-29T08:54:04;592.03;;;180.57;;
23181;SDS011;11759;51.282;6.642;2023-05-29T08:56:32;594.17;;;190.25;;
23181;SDS011;11759;51.282;6.642;2023-05-29T08:59:01;607.13;;;194.48;;
23181;SDS011;11759;51.282;6.642;2023-05-29T09:01:31;582.25;;;175.30;;
23181;SDS011;11759;51.282;6.642;2023-05-29T09:03:59;583.35;;;162.75;;
23181;SDS011;11759;51.282;6.642;2023-05-29T09:06:26;584.08;;;165.43;;
23181;SDS011;11759;51.282;6.642;2023-05-29T09:08:54;579.17;;;163.82;;
23181;SDS011;11759;51.282;6.642;2023-05-29T09:11:22;628.83;;;205.07;;
23181;SDS011;11759;51.282;6.642;2023-05-29T09:13:49;586.10;;;172.75;;
23181;SDS011;11759;51.282;6.642;2023-05-29T09:16:18;626.95;;;207.02;;
23181;SDS011;11759;51.282;6.642;2023-05-29T09:18:45;585.70;;;179.13;;
23181;SDS011;11759;51.282;6.642;2023-05-29T09:21:26;602.45;;;193.43;;
23181;SDS011;11759;51.282;6.642;2023-05-29T09:23:53;615.10;;;202.63;;
23181;SDS011;11759;51.282;6.642;2023-05-29T09:26:21;586.05;;;182.45;;
23181;SDS011;11759;51.282;6.642;2023-05-29T09:28:49;607.38;;;191.85;;
23181;SDS011;11759;51.282;6.642;2023-05-29T09:31:16;587.75;;;181.27;;
23181;SDS011;11759;51.282;6.642;2023-05-29T09:33:47;616.40;;;203.98;;
23181;SDS011;11759;51.282;6.642;2023-05-29T09:36:22;589.17;;;181.70;;
23181;SDS011;11759;51.282;6.642;2023-05-29T09:38:49;602.00;;;194.13;;
23181;SDS011;11759;51.282;6.642;2023-05-29T09:43:50;603.15;;;186.43;;
23181;SDS011;11759;51.282;6.642;2023-05-29T09:46:17;587.80;;;183.65;;
23181;SDS011;11759;51.282;6.642;2023-05-29T09:48:45;595.90;;;193.15;;
23181;SDS011;11759;51.282;6.642;2023-05-29T09:51:21;586.53;;;186.05;;
23181;SDS011;11759;51.282;6.642;2023-05-29T09:53:50;612.08;;;217.38;;
23181;SDS011;11759;51.282;6.642;2023-05-29T09:56:17;594.03;;;193.98;;
23181;SDS011;11759;51.282;6.642;2023-05-29T09:58:45;608.38;;;222.23;;
23181;SDS011;11759;51.282;6.642;2023-05-29T10:01:13;602.25;;;222.15;;
23181;SDS011;11759;51.282;6.642;2023-05-29T10:03:42;608.15;;;230.40;;
23181;SDS011;11759;51.282;6.642;2023-05-29T10:06:14;618.33;;;238.75;;
23181;SDS011;11759;51.282;6.642;2023-05-29T10:08:45;608.53;;;228.15;;
23181;SDS011;11759;51.282;6.642;2023-05-29T10:11:20;595.55;;;208.57;;
23181;SDS011;11759;51.282;6.642;2023-05-29T10:13:51;618.22;;;225.13;;
23181;SDS011;11759;51.282;6.642;2023-05-29T10:16:21;602.72;;;213.77;;
23181;SDS011;11759;51.282;6.642;2023-05-29T10:18:55;660.60;;;273.67;;
23181;SDS011;11759;51.282;6.642;2023-05-29T10:21:24;595.47;;;220.32;;
23181;SDS011;11759;51.282;6.642;2023-05-29T10:23:54;621.33;;;238.00;;
23181;SDS011;11759;51.282;6.642;2023-05-29T10:26:22;600.70;;;233.43;;
23181;SDS011;11759;51.282;6.642;2023-05-29T10:34:36;602.53;;;234.75;;
23181;SDS011;11759;51.282;6.642;2023-05-29T10:39:46;616.15;;;250.95;;
23181;SDS011;11759;51.282;6.642;2023-05-29T10:50:45;608.45;;;246.90;;
23181;SDS011;11759;51.282;6.642;2023-05-29T10:53:16;606.22;;;227.82;;
23181;SDS011;11759;51.282;6.642;2023-05-29T10:55:45;611.60;;;250.40;;
23181;SDS011;11759;51.282;6.642;2023-05-29T10:58:12;607.80;;;260.13;;
23181;SDS011;11759;51.282;6.642;2023-05-29T11:00:39;617.45;;;270.45;;
23181;SDS011;11759;51.282;6.642;2023-05-29T11:03:10;622.20;;;289.10;;
23181;SDS011;11759;51.282;6.642;2023-05-29T11:05:55;610.22;;;274.15;;
23181;SDS011;11759;51.282;6.642;2023-05-29T11:08:34;622.88;;;312.70;;
23181;SDS011;11759;51.282;6.642;2023-05-29T11:11:04;681.80;;;374.38;;
23181;SDS011;11759;51.282;6.642;2023-05-29T11:13:33;635.63;;;368.75;;
23181;SDS011;11759;51.282;6.642;2023-05-29T11:18:43;625.58;;;338.92;;
23181;SDS011;11759;51.282;6.642;2023-05-29T11:24:00;668.22;;;379.73;;
23181;SDS011;11759;51.282;6.642;2023-05-29T11:26:35;629.50;;;348.98;;
23181;SDS011;11759;51.282;6.642;2023-05-29T11:29:03;684.88;;;395.90;;
23181;SDS011;11759;51.282;6.642;2023-05-29T11:31:37;628.28;;;352.52;;
23181;SDS011;11759;51.282;6.642;2023-05-29T11:34:08;685.42;;;391.23;;
23181;SDS011;11759;51.282;6.642;2023-05-29T11:36:36;646.10;;;364.70;;
23181;SDS011;11759;51.282;6.642;2023-05-29T11:39:03;636.38;;;376.08;;
23181;SDS011;11759;51.282;6.642;2023-05-29T11:41:30;629.75;;;373.10;;
23181;SDS011;11759;51.282;6.642;2023-05-29T11:44:00;645.35;;;366.88;;
23181;SDS011;11759;51.282;6.642;2023-05-29T11:46:32;631.55;;;352.70;;
23181;SDS011;11759;51.282;6.642;2023-05-29T11:48:59;675.33;;;372.20;;
23181;SDS011;11759;51.282;6.642;2023-05-29T11:51:26;631.45;;;347.20;;
23181;SDS011;11759;51.282;6.642;2023-05-29T11:53:53;639.58;;;333.20;;
23181;SDS011;11759;51.282;6.642;2023-05-29T11:58:52;646.58;;;348.13;;
23181;SDS011;11759;51.282;6.642;2023-05-29T12:01:23;646.33;;;350.15;;
23181;SDS011;11759;51.282;6.642;2023-05-29T12:03:51;630.00;;;350.05;;
23181;SDS011;11759;51.282;6.642;2023-05-29T12:06:31;642.70;;;358.13;;
23181;SDS011;11759;51.282;6.642;2023-05-29T12:09:00;639.55;;;366.83;;
23181;SDS011;11759;51.282;6.642;2023-05-29T12:11:27;631.38;;;376.27;;
23181;SDS011;11759;51.282;6.642;2023-05-29T12:13:56;634.97;;;370.33;;
23181;SDS011;11759;51.282;6.642;2023-05-29T12:16:23;640.35;;;371.55;;
23181;SDS011;11759;51.282;6.642;2023-05-29T12:18:50;633.58;;;371.00;;
23181;SDS011;11759;51.282;6.642;2023-05-29T12:21:17;651.72;;;406.10;;
23181;SDS011;11759;51.282;6.642;2023-05-29T12:23:44;636.45;;;385.80;;
23181;SDS011;11759;51.282;6.642;2023-05-29T12:26:11;698.30;;;449.63;;
23181;SDS011;11759;51.282;6.642;2023-05-29T12:28:43;637.78;;;392.00;;
23181;SDS011;11759;51.282;6.642;2023-05-29T12:31:11;692.35;;;432.67;;
23181;SDS011;11759;51.282;6.642;2023-05-29T12:33:40;639.28;;;396.67;;
23181;SDS011;11759;51.282;6.642;2023-05-29T12:36:09;651.45;;;399.33;;
23181;SDS011;11759;51.282;6.642;2023-05-29T12:38:46;637.58;;;393.38;;
23181;SDS011;11759;51.282;6.642;2023-05-29T12:41:23;687.70;;;425.02;;
23181;SDS011;11759;51.282;6.642;2023-05-29T12:43:56;643.05;;;402.50;;
23181;SDS011;11759;51.282;6.642;2023-05-29T12:46:27;651.95;;;412.13;;
23181;SDS011;11759;51.282;6.642;2023-05-29T12:48:54;641.45;;;400.10;;
23181;SDS011;11759;51.282;6.642;2023-05-29T12:51:24;647.05;;;404.92;;
23181;SDS011;11759;51.282;6.642;2023-05-29T12:53:52;635.65;;;373.65;;
23181;SDS011;11759;51.282;6.642;2023-05-29T12:56:22;635.78;;;346.80;;
23181;SDS011;11759;51.282;6.642;2023-05-29T12:58:50;628.90;;;342.90;;
23181;SDS011;11759;51.282;6.642;2023-05-29T13:01:18;617.83;;;305.77;;
23181;SDS011;11759;51.282;6.642;2023-05-29T13:03:48;622.90;;;307.92;;
23181;SDS011;11759;51.282;6.642;2023-05-29T13:06:15;643.83;;;320.10;;
23181;SDS011;11759;51.282;6.642;2023-05-29T13:08:42;616.75;;;300.20;;
23181;SDS011;11759;51.282;6.642;2023-05-29T13:11:09;643.33;;;332.45;;
23181;SDS011;11759;51.282;6.642;2023-05-29T13:13:36;625.38;;;323.40;;
23181;SDS011;11759;51.282;6.642;2023-05-29T13:16:03;642.50;;;327.70;;
23181;SDS011;11759;51.282;6.642;2023-05-29T13:18:29;623.47;;;323.52;;
23181;SDS011;11759;51.282;6.642;2023-05-29T13:20:57;634.80;;;325.10;;
23181;SDS011;11759;51.282;6.642;2023-05-29T13:23:25;617.03;;;297.13;;
23181;SDS011;11759;51.282;6.642;2023-05-29T13:25:54;623.63;;;297.98;;
23181;SDS011;11759;51.282;6.642;2023-05-29T13:28:21;613.33;;;297.05;;
23181;SDS011;11759;51.282;6.642;2023-05-29T13:30:48;613.97;;;286.40;;
23181;SDS011;11759;51.282;6.642;2023-05-29T13:33:15;635.60;;;319.67;;
23181;SDS011;11759;51.282;6.642;2023-05-29T13:35:42;619.08;;;308.95;;
23181;SDS011;11759;51.282;6.642;2023-05-29T13:38:08;611.72;;;288.10;;
23181;SDS011;11759;51.282;6.642;2023-05-29T13:40:35;612.65;;;285.02;;
23181;SDS011;11759;51.282;6.642;2023-05-29T13:43:02;623.72;;;294.65;;
23181;SDS011;11759;51.282;6.642;2023-05-29T13:45:29;613.25;;;284.52;;
23181;SDS011;11759;51.282;6.642;2023-05-29T13:47:56;632.85;;;301.20;;
23181;SDS011;11759;51.282;6.642;2023-05-29T13:50:23;611.97;;;293.70;;
23181;SDS011;11759;51.282;6.642;2023-05-29T13:52:50;714.63;;;370.75;;
23181;SDS011;11759;51.282;6.642;2023-05-29T13:55:17;658.75;;;327.98;;
23181;SDS011;11759;51.282;6.642;2023-05-29T13:57:44;612.13;;;287.50;;
23181;SDS011;11759;51.282;6.642;2023-05-29T14:00:11;654.95;;;312.48;;
23181;SDS011;11759;51.282;6.642;2023-05-29T14:02:39;621.05;;;283.25;;
23181;SDS011;11759;51.282;6.642;2023-05-29T14:05:06;640.95;;;305.48;;
23181;SDS011;11759;51.282;6.642;2023-05-29T14:07:33;619.80;;;290.70;;
23181;SDS011;11759;51.282;6.642;2023-05-29T14:10:00;615.88;;;293.23;;
23181;SDS011;11759;51.282;6.642;2023-05-29T14:12:27;631.78;;;305.92;;
23181;SDS011;11759;51.282;6.642;2023-05-29T14:14:54;611.25;;;287.92;;
23181;SDS011;11759;51.282;6.642;2023-05-29T14:17:21;637.08;;;313.42;;
23181;SDS011;11759;51.282;6.642;2023-05-29T14:19:48;613.95;;;304.48;;
23181;SDS011;11759;51.282;6.642;2023-05-29T14:22:15;629.00;;;327.00;;
23181;SDS011;11759;51.282;6.642;2023-05-29T14:24:41;617.10;;;316.38;;
23181;SDS011;11759;51.282;6.642;2023-05-29T14:27:08;614.58;;;303.20;;
23181;SDS011;11759;51.282;6.642;2023-05-29T14:29:35;621.38;;;297.40;;
23181;SDS011;11759;51.282;6.642;2023-05-29T14:32:02;620.30;;;303.02;;
23181;SDS011;11759;51.282;6.642;2023-05-29T14:34:29;630.78;;;308.13;;
23181;SDS011;11759;51.282;6.642;2023-05-29T14:36:56;614.35;;;297.75;;
23181;SDS011;11759;51.282;6.642;2023-05-29T14:39:23;639.30;;;333.73;;